FredonyerEastRWIS Atmospheric Data: 04/16/2018 Summary  Detailed Graphs  Station List

  Temperature     Wind Precipitation Visibility
Timestamp Air Wet
Bulb
Dew-
point
24-hr
Max
24-hr
Min
Relative
Humidity
Atmospheric
Pressure
Avg
Speed
Avg
Dir
Spot
Speed
Spot
Dir
Max
Speed
Max
Dir
  Rate Situation Start End 1 hr 3 hr 6 hr 12 hr 24 hr   Situation
Date Time °F °F °F °F °F % in Hg mph ° mph ° mph ° Y/N in/hr text Date Time Date Time in in in in in mi text
04/16/2018 12:08 AM 29.30 26.24 18.86 52.70 29.30 64.0 Not Reported 0.00 N 0.00 NW 0.00 x No x No Precipitation 04/15/2018 11:29 PM 04/15/2018 11:31 PM x x x x x Not Reported Not Reported
04/16/2018 12:23 AM 29.12 26.06 18.86 52.70 29.12 64.0 Not Reported 0.00 NW 0.00 N 0.00 x Yes x Unknown 04/16/2018 12:22 AM   x x x x x Not Reported Not Reported
04/16/2018 12:38 AM 29.30 26.24 19.04 52.70 29.12 64.0 Not Reported 0.00 NW 0.00 NW 0.00 x Yes x Unknown 04/16/2018 12:22 AM   x x x x x Not Reported Not Reported
04/16/2018 12:53 AM 29.48 26.42 19.04 52.70 29.12 64.0 Not Reported 0.00 S 0.00 E 0.00 x No x No Precipitation 04/16/2018 12:49 AM 04/16/2018 12:50 AM x x x x x Not Reported Not Reported
04/16/2018 01:08 AM 29.30 26.24 18.86 52.70 29.12 64.0 Not Reported 0.00 W 0.00 NW 0.00 x Yes x Unknown 04/16/2018 01:10 AM   x x x x x Not Reported Not Reported
04/16/2018 01:23 AM 29.30 26.24 18.86 52.70 29.12 64.0 Not Reported 0.00 W 0.00 SW 0.00 x Yes x Unknown 04/16/2018 01:25 AM   x x x x x Not Reported Not Reported
04/16/2018 01:38 AM 29.12 26.06 18.50 52.70 29.12 64.0 Not Reported 0.00 S 0.00 SW 0.00 x Yes x Unknown 04/16/2018 01:28 AM   x x x x x Not Reported Not Reported
04/16/2018 01:53 AM 28.58 25.70 18.14 52.70 28.40 64.0 Not Reported 0.00 W 0.00 SW 0.00 x Yes x Unknown 04/16/2018 01:28 AM   x x x x x Not Reported Not Reported
04/16/2018 02:08 AM 28.40 25.52 18.50 52.70 28.40 65.0 Not Reported 0.00 NW 0.00 SW 0.00 x Yes x Unknown 04/16/2018 01:28 AM   x x x x x Not Reported Not Reported
04/16/2018 02:23 AM 28.40 25.52 18.32 52.70 28.40 65.0 Not Reported 0.00 SW 0.00 NW 0.00 x Yes x Unknown 04/16/2018 01:28 AM   x x x x x Not Reported Not Reported
04/16/2018 02:38 AM 28.40 25.52 18.32 52.70 28.40 65.0 Not Reported 0.00 W 0.00 NE 0.00 x Yes x Unknown 04/16/2018 02:40 AM   x x x x x Not Reported Not Reported
04/16/2018 02:53 AM 28.40 25.70 18.68 52.70 28.40 66.0 Not Reported 0.00 E 0.00 S 0.00 x Yes x Unknown 04/16/2018 02:40 AM   x x x x x Not Reported Not Reported
04/16/2018 03:08 AM 28.58 25.70 19.04 52.70 28.40 66.0 Not Reported 0.00 W 0.00 SW 0.00 x Yes x Unknown 04/16/2018 02:40 AM   x x x x x Not Reported Not Reported
04/16/2018 03:23 AM 28.58 25.70 19.04 52.70 28.40 66.0 Not Reported 0.00 S 0.00 S 0.00 x Yes x Unknown 04/16/2018 02:40 AM   x x x x x Not Reported Not Reported
04/16/2018 03:38 AM 28.40 25.52 18.68 52.70 28.40 66.0 Not Reported 0.00 SW 0.00 N 0.00 x Yes x Unknown 04/16/2018 02:40 AM   x x x x x Not Reported Not Reported
04/16/2018 03:53 AM 28.40 25.34 18.32 52.70 28.40 65.0 Not Reported 0.00 W 0.00 NW 0.00 x Yes x Unknown 04/16/2018 02:40 AM   x x x x x Not Reported Not Reported
04/16/2018 04:08 AM 28.40 25.34 18.32 52.70 28.40 65.0 Not Reported 0.00 N 0.00 SE 0.00 x Yes x Unknown 04/16/2018 02:40 AM   x x x x x Not Reported Not Reported
04/16/2018 04:23 AM 28.40 25.34 18.14 52.70 28.40 65.0 Not Reported 0.00 W 0.00 SE 0.00 x Yes x Unknown 04/16/2018 04:25 AM   x x x x x Not Reported Not Reported
04/16/2018 04:38 AM 28.22 25.16 17.60 52.70 28.22 64.0 Not Reported 0.00 NW 0.00 NW 0.00 x Yes x Unknown 04/16/2018 04:25 AM   x x x x x Not Reported Not Reported
04/16/2018 04:53 AM 28.22 25.16 17.60 52.70 28.22 64.0 Not Reported 0.00 SW 0.00 NW 0.00 x Yes x Unknown 04/16/2018 04:25 AM   x x x x x Not Reported Not Reported
04/16/2018 05:08 AM 28.04 24.98 17.42 52.70 28.04 63.0 Not Reported 0.00 W 0.00 W 0.00 x Yes x Unknown 04/16/2018 04:25 AM   x x x x x Not Reported Not Reported
04/16/2018 05:23 AM 27.68 24.62 16.88 52.70 27.68 63.0 Not Reported 0.00 SW 0.00 N 0.00 x No x No Precipitation 04/16/2018 05:18 AM 04/16/2018 05:25 AM x x x x x Not Reported Not Reported
04/16/2018 05:38 AM 28.04 24.98 17.06 52.70 27.68 62.0 Not Reported 0.00 NW 0.00 N 0.00 x Yes x Unknown 04/16/2018 05:32 AM   x x x x x Not Reported Not Reported
04/16/2018 05:53 AM 27.86 24.80 16.70 52.70 27.68 62.0 Not Reported 0.00 SW 0.00 W 0.00 x Yes x Unknown 04/16/2018 05:50 AM   x x x x x Not Reported Not Reported
04/16/2018 06:08 AM 27.50 24.44 16.34 52.70 27.50 62.0 Not Reported 0.00 NW 0.00 NW 0.00 x No x No Precipitation 04/16/2018 05:50 AM 04/16/2018 06:09 AM x x x x x Not Reported Not Reported
04/16/2018 06:23 AM 27.50 24.44 16.16 52.70 27.32 61.0 Not Reported 0.00 W 0.00 SW 0.00 x No x No Precipitation 04/16/2018 06:24 AM 04/16/2018 06:25 AM x x x x x Not Reported Not Reported
04/16/2018 06:38 AM 27.86 24.80 16.70 52.70 27.32 62.0 Not Reported 0.00 W 0.00 NW 0.00 x Yes x Unknown 04/16/2018 06:28 AM   x x x x x Not Reported Not Reported
04/16/2018 06:53 AM 26.96 24.08 16.34 52.70 26.96 63.0 Not Reported 0.00 W 0.00 W 0.00 x Yes x Unknown 04/16/2018 06:28 AM   x x x x x Not Reported Not Reported
04/16/2018 07:08 AM 26.78 23.90 16.52 52.70 26.78 64.0 Not Reported 0.00 W 0.00 W 0.00 x Yes x Unknown 04/16/2018 06:28 AM   x x x x x Not Reported Not Reported
04/16/2018 07:23 AM 26.96 24.08 16.52 52.70 26.78 64.0 Not Reported 0.00 SW 0.00 E 0.00 x Yes x Unknown 04/16/2018 07:24 AM   x x x x x Not Reported Not Reported
04/16/2018 07:42 AM 28.94 25.88 18.14 52.70 26.78 63.0 Not Reported 0.00 SW 0.00 W 0.00 x Yes x Unknown 04/16/2018 07:37 AM   x x x x x Not Reported Not Reported
04/16/2018 07:53 AM 29.48 26.24 17.78 52.70 26.78 61.0 Not Reported 0.00 NE 0.00 SW 0.00 x Yes x Unknown 04/16/2018 07:37 AM   x x x x x Not Reported Not Reported
04/16/2018 08:08 AM 30.20 26.78 17.60 52.70 26.78 59.0 Not Reported 0.00 SW 0.00 SE 0.00 x Yes x Unknown 04/16/2018 08:05 AM   x x x x x Not Reported Not Reported
04/16/2018 08:23 AM 30.74 26.96 16.88 52.70 26.78 55.0 Not Reported 0.00 W 0.00 SW 0.00 x Yes x Unknown 04/16/2018 08:17 AM   x x x x x Not Reported Not Reported
04/16/2018 08:39 AM 31.82 27.86 17.42 52.70 26.78 54.0 Not Reported 0.00 E 0.00 NE 0.00 x No x No Precipitation 04/16/2018 08:36 AM 04/16/2018 08:41 AM x x x x x Not Reported Not Reported
04/16/2018 08:53 AM 32.00 27.86 17.42 52.70 26.78 54.0 Not Reported 0.00 SW 0.00 E 0.00 x Yes x Unknown 04/16/2018 08:51 AM   x x x x x Not Reported Not Reported
04/16/2018 09:08 AM 33.08 28.58 17.60 52.70 26.78 52.0 Not Reported 0.00 S 0.00 SW 0.00 x Yes x Unknown 04/16/2018 08:51 AM   x x x x x Not Reported Not Reported
04/16/2018 09:23 AM 32.54 28.04 16.34 52.70 26.78 50.0 Not Reported 0.00 SW 0.00 W 0.00 x Yes x Unknown 04/16/2018 09:21 AM   x x x x x Not Reported Not Reported
04/16/2018 09:38 AM 32.90 28.22 16.34 52.70 26.78 50.0 Not Reported 0.00 W 0.00 SW 0.00 x No x No Precipitation 04/16/2018 09:34 AM 04/16/2018 09:35 AM x x x x x Not Reported Not Reported
04/16/2018 09:53 AM 33.08 28.40 15.98 52.70 26.78 48.0 Not Reported 0.00 SW 0.00 W 0.00 x No x No Precipitation 04/16/2018 09:54 AM 04/16/2018 09:55 AM x x x x x Not Reported Not Reported
04/16/2018 10:08 AM 31.82 27.14 14.36 52.70 26.78 48.0 Not Reported 0.00 S 0.00 S 0.00 x Yes x Unknown 04/16/2018 10:04 AM   x x x x x Not Reported Not Reported
04/16/2018 10:23 AM 31.46 26.96 14.90 52.70 26.78 50.0 Not Reported 0.00 W 0.00 S 0.00 x Yes x Unknown 04/16/2018 10:04 AM   x x x x x Not Reported Not Reported
04/16/2018 10:38 AM 33.08 28.76 17.24 52.70 26.78 51.0 Not Reported 0.00 E 0.00 SE 0.00 x No x No Precipitation 04/16/2018 10:04 AM 04/16/2018 10:40 AM x x x x x Not Reported Not Reported
04/16/2018 10:53 AM 33.08 28.40 16.16 52.70 26.78 49.0 Not Reported 0.00 S 0.00 S 0.00 x Yes x Unknown 04/16/2018 10:47 AM   x x x x x Not Reported Not Reported
04/16/2018 11:08 AM 36.68 31.28 16.88 52.52 26.78 43.0 Not Reported 0.00 E 0.00 E 0.00 x No x No Precipitation 04/16/2018 11:04 AM 04/16/2018 11:05 AM x x x x x Not Reported Not Reported
04/16/2018 11:23 AM 36.32 30.74 15.26 52.52 26.78 41.0 Not Reported 3.58 W 2.46 W 11.18 SW No x No Precipitation 04/16/2018 11:04 AM 04/16/2018 11:05 AM x x x x x Not Reported Not Reported
04/16/2018 11:38 AM 37.04 31.28 15.08 52.52 26.78 39.0 Not Reported 3.36 NW 2.01 S 8.95 S No x No Precipitation 04/16/2018 11:04 AM 04/16/2018 11:05 AM x x x x x Not Reported Not Reported
04/16/2018 11:53 AM 37.04 31.28 14.54 52.52 26.78 39.0 Not Reported 2.01 NW 2.68 S 6.71 S No x No Precipitation 04/16/2018 11:04 AM 04/16/2018 11:05 AM x x x x x Not Reported Not Reported
04/16/2018 12:08 PM 34.88 29.66 14.72 50.90 26.78 42.0 Not Reported 2.46 SW 1.79 SE 8.28 NW Yes x Unknown 04/16/2018 12:06 PM   x x x x x Not Reported Not Reported
04/16/2018 12:23 PM 37.76 31.82 16.70 50.90 26.78 42.0 Not Reported 2.24 S 2.24 SE 4.92 S No x No Precipitation 04/16/2018 12:06 PM 04/16/2018 12:24 PM x x x x x Not Reported Not Reported
04/16/2018 12:38 PM 36.68 30.92 14.72 50.90 26.78 39.0 Not Reported 1.79 W 1.79 W 8.28 SW No x No Precipitation 04/16/2018 12:28 PM 04/16/2018 12:32 PM x x x x x Not Reported Not Reported
04/16/2018 12:53 PM 36.50 30.74 15.08 50.90 26.78 41.0 Not Reported 4.47 W 4.70 W 8.72 W Yes x Unknown 04/16/2018 12:56 PM   x x x x x Not Reported Not Reported
04/16/2018 01:08 PM 33.26 28.58 15.62 47.66 26.78 47.0 Not Reported 4.03 SW 2.68 SW 11.18 SW Yes x Unknown 04/16/2018 12:56 PM   x x x x x Not Reported Not Reported
04/16/2018 01:23 PM 34.16 29.30 16.34 47.66 26.78 47.0 Not Reported 6.04 W 5.59 W 9.84 SW Yes x Unknown 04/16/2018 01:25 PM   x x x x x Not Reported Not Reported
04/16/2018 01:38 PM 35.60 30.38 16.52 47.66 26.78 45.0 Not Reported 4.25 SW 1.34 S 7.83 S Yes x Unknown 04/16/2018 01:40 PM   x x x x x Not Reported Not Reported
04/16/2018 01:53 PM 38.12 32.18 16.70 47.66 26.78 41.0 Not Reported 4.03 W 7.16 SW 12.53 SW No x No Precipitation 04/16/2018 01:40 PM 04/16/2018 01:41 PM x x x x x Not Reported Not Reported
04/16/2018 02:08 PM 37.04 31.28 14.90 46.94 26.78 39.0 Not Reported 5.59 NW 7.38 W 10.29 NW No x No Precipitation 04/16/2018 01:40 PM 04/16/2018 01:41 PM x x x x x Not Reported Not Reported
04/16/2018 02:23 PM 37.76 31.82 15.26 46.94 26.78 39.0 Not Reported 3.58 S 8.72 SW 12.08 SW No x No Precipitation 04/16/2018 01:40 PM 04/16/2018 01:41 PM x x x x x Not Reported Not Reported
04/16/2018 02:38 PM 38.84 32.54 14.90 46.94 26.78 37.0 Not Reported 4.03 SW 4.70 S 8.05 NW No x No Precipitation 04/16/2018 02:38 PM 04/16/2018 02:39 PM x x x x x Not Reported Not Reported
04/16/2018 02:53 PM 38.12 32.00 14.54 46.94 26.78 37.0 Not Reported 4.70 SW 2.91 SW 8.05 S No x No Precipitation 04/16/2018 02:38 PM 04/16/2018 02:39 PM x x x x x Not Reported Not Reported
04/16/2018 03:08 PM 37.58 31.46 14.00 44.42 26.78 37.0 Not Reported 3.36 S 0.67 S 8.05 W No x No Precipitation 04/16/2018 02:38 PM 04/16/2018 02:39 PM x x x x x Not Reported Not Reported
04/16/2018 03:23 PM 36.50 30.74 13.10 44.42 26.78 37.0 Not Reported 3.58 SW 3.58 NW 9.84 SW No x No Precipitation 04/16/2018 02:38 PM 04/16/2018 02:39 PM x x x x x Not Reported Not Reported
04/16/2018 03:38 PM 36.14 30.56 14.54 44.42 26.78 40.0 Not Reported 4.03 NW 2.46 SW 10.74 W Yes x Unknown 04/16/2018 03:38 PM   x x x x x Not Reported Not Reported
04/16/2018 03:53 PM 37.04 31.28 15.26 44.42 26.78 40.0 Not Reported 4.70 W 5.14 W 11.18 N Yes x Unknown 04/16/2018 03:53 PM   x x x x x Not Reported Not Reported
04/16/2018 04:08 PM 35.24 29.84 14.54 39.56 26.78 42.0 Not Reported 1.34 W 0.22 W 11.86 N No x No Precipitation 04/16/2018 03:53 PM 04/16/2018 04:11 PM x x x x x Not Reported Not Reported
04/16/2018 04:23 PM 34.70 29.48 14.72 39.56 26.78 43.0 Not Reported 1.34 SE 0.22 SE 8.28 W No x No Precipitation 04/16/2018 04:25 PM 04/16/2018 04:26 PM x x x x x Not Reported Not Reported
04/16/2018 04:38 PM 34.16 29.30 15.62 39.56 26.78 46.0 Not Reported 2.68 W 2.91 NW 5.37 N Yes x Unknown 04/16/2018 04:38 PM   x x x x x Not Reported Not Reported
04/16/2018 04:53 PM 33.08 28.58 16.16 39.56 26.78 49.0 Not Reported 2.68 N 1.79 NW 5.82 SW No x No Precipitation 04/16/2018 04:38 PM 04/16/2018 04:56 PM x x x x x Not Reported Not Reported
04/16/2018 05:08 PM 33.44 28.76 16.16 39.56 26.78 48.0 Not Reported 6.04 SW 4.03 SW 8.72 S Yes x Unknown 04/16/2018 05:10 PM   x x x x x Not Reported Not Reported
04/16/2018 05:23 PM 31.28 26.96 14.72 39.56 26.78 50.0 Not Reported 1.79 NW 2.46 SW 12.08 W Yes x Unknown 04/16/2018 05:15 PM   x x x x x Not Reported Not Reported
04/16/2018 05:38 PM 30.56 26.60 16.16 39.56 26.78 54.0 Not Reported 3.36 SW 3.36 SW 6.93 S Yes x Unknown 04/16/2018 05:15 PM   x x x x x Not Reported Not Reported
04/16/2018 05:53 PM 30.56 26.78 16.88 39.56 26.78 56.0 Not Reported 2.24 SW 2.46 SW 5.14 SW Yes x Unknown 04/16/2018 05:15 PM   x x x x x Not Reported Not Reported
04/16/2018 06:09 PM 31.28 27.50 18.14 39.56 26.78 57.0 Not Reported 0.45 SW 1.79 SW 3.58 SW No x No Precipitation 04/16/2018 05:58 PM 04/16/2018 05:59 PM x x x x x Not Reported Not Reported
04/16/2018 06:23 PM 30.92 27.14 17.06 39.56 26.78 55.0 Not Reported 2.24 SW 2.24 SW 7.83 SW No x No Precipitation 04/16/2018 05:58 PM 04/16/2018 05:59 PM x x x x x Not Reported Not Reported
04/16/2018 06:38 PM 30.74 26.78 16.16 39.56 26.78 54.0 Not Reported 2.46 SW 6.04 W 9.40 SW No x No Precipitation 04/16/2018 05:58 PM 04/16/2018 05:59 PM x x x x x Not Reported Not Reported
04/16/2018 06:53 PM 30.74 26.60 15.98 39.56 26.78 53.0 Not Reported 3.36 W 5.82 W 6.71 W Yes x Unknown 04/16/2018 06:56 PM   x x x x x Not Reported Not Reported
04/16/2018 07:08 PM 30.74 26.60 16.34 39.56 26.78 54.0 Not Reported 4.92 SW 5.59 S 8.05 SW Yes x Unknown 04/16/2018 07:10 PM   x x x x x Not Reported Not Reported
04/16/2018 07:23 PM 30.56 26.60 16.70 39.56 26.78 55.0 Not Reported 1.12 E 0.00 S 6.04 SW Yes x Unknown 04/16/2018 07:18 PM   x x x x x Not Reported Not Reported
04/16/2018 07:38 PM 30.56 26.78 17.06 39.56 26.78 57.0 Not Reported 1.12 S 0.67 S 2.68 S Yes x Unknown 04/16/2018 07:27 PM   x x x x x Not Reported Not Reported
04/16/2018 07:53 PM 30.20 26.60 17.96 39.56 26.78 59.0 Not Reported 1.12 SW 0.22 SW 1.57 SW No x No Precipitation 04/16/2018 07:27 PM 04/16/2018 07:51 PM x x x x x Not Reported Not Reported
04/16/2018 08:09 PM 29.84 26.24 17.96 39.56 26.78 60.0 Not Reported 2.68 W 2.01 SW 5.37 W No x No Precipitation 04/16/2018 08:06 PM 04/16/2018 08:07 PM x x x x x Not Reported Not Reported
04/16/2018 08:23 PM 30.02 26.42 17.96 39.56 26.78 60.0 Not Reported 0.67 SE 0.00 NE 4.70 S Yes x Unknown 04/16/2018 08:25 PM   x x x x x Not Reported Not Reported
04/16/2018 08:38 PM 29.84 26.60 17.96 39.56 26.78 60.0 Not Reported 1.79 SW 2.91 SW 4.03 S Yes x Unknown 04/16/2018 08:25 PM   x x x x x Not Reported Not Reported
04/16/2018 08:53 PM 29.30 25.88 17.42 39.56 26.78 60.0 Not Reported 2.24 S 2.24 SW 8.28 W Yes x Unknown 04/16/2018 08:25 PM   x x x x x Not Reported Not Reported
04/16/2018 09:08 PM 29.12 25.70 17.24 39.56 26.78 60.0 Not Reported 2.68 W 3.13 SW 7.61 NW Yes x Unknown 04/16/2018 08:25 PM   x x x x x Not Reported Not Reported
04/16/2018 09:23 PM 28.58 25.34 16.88 39.56 26.78 60.0 Not Reported 2.91 W 5.37 W 7.16 W No x No Precipitation 04/16/2018 08:25 PM 04/16/2018 09:15 PM x x x x x Not Reported Not Reported
04/16/2018 09:38 PM 28.58 25.34 16.52 39.56 26.78 59.0 Not Reported 2.91 W 1.79 W 7.16 NW No x No Precipitation 04/16/2018 08:25 PM 04/16/2018 09:15 PM x x x x x Not Reported Not Reported
04/16/2018 09:53 PM 28.76 25.34 15.80 39.56 26.78 58.0 Not Reported 0.89 W 2.24 NW 12.08 W No x No Precipitation 04/16/2018 08:25 PM 04/16/2018 09:15 PM x x x x x Not Reported Not Reported
04/16/2018 10:09 PM 28.40 24.98 15.26 39.56 26.78 57.0 Not Reported 2.91 W 5.59 W 9.17 SW No x No Precipitation 04/16/2018 10:02 PM 04/16/2018 10:03 PM x x x x x Not Reported Not Reported
04/16/2018 10:23 PM 28.04 24.62 14.72 39.56 26.78 56.0 Not Reported 1.12 W 1.79 W 2.91 NW No x No Precipitation 04/16/2018 10:02 PM 04/16/2018 10:03 PM x x x x x Not Reported Not Reported
04/16/2018 10:38 PM 27.68 24.44 14.90 39.56 26.78 58.0 Not Reported 1.79 SE 2.46 SW 3.13 SW No x No Precipitation 04/16/2018 10:02 PM 04/16/2018 10:03 PM x x x x x Not Reported Not Reported
04/16/2018 10:53 PM 27.14 23.90 15.08 39.56 26.78 60.0 Not Reported 2.68 W 1.79 W 3.80 SW No x No Precipitation 04/16/2018 10:02 PM 04/16/2018 10:03 PM x x x x x Not Reported Not Reported
04/16/2018 11:09 PM 26.78 23.72 15.44 39.56 26.78 61.0 Not Reported 1.57 W 0.67 W 3.80 SW No x No Precipitation 04/16/2018 10:02 PM 04/16/2018 10:03 PM x x x x x Not Reported Not Reported
04/16/2018 11:23 PM 26.24 23.36 15.26 39.56 26.24 62.0 Not Reported 0.89 SW 0.00 SW 2.01 SW No x No Precipitation 04/16/2018 10:02 PM 04/16/2018 10:03 PM x x x x x Not Reported Not Reported
04/16/2018 11:38 PM 26.06 23.36 15.44 39.56 26.06 63.0 Not Reported 1.12 W 0.67 NW 4.47 W No x No Precipitation 04/16/2018 10:02 PM 04/16/2018 10:03 PM x x x x x Not Reported Not Reported
04/16/2018 11:53 PM 26.24 23.54 15.80 39.56 26.06 64.0 Not Reported 1.79 W 1.79 W 3.80 W No x No Precipitation 04/16/2018 10:02 PM 04/16/2018 10:03 PM x x x x x Not Reported Not Reported